Time;durP1;ratioP1;P1;durP2;ratioP2;P2;SDS_P1;SDS_P2;PMS_P1;PMS_P2;Temp;Humidity;BMP_temperature;BMP_pressure;BME280_temperature;BME280_humidity;BME280_pressure;Samples;Min_cycle;Max_cycle;Signal;HPM_P1;HPM_P2
2022/02/02 00:00:20;;;;;;;19.80;18.90;;;12.00;80.20;;;;;;4955306;28;20047;-84
2022/02/02 00:02:52;;;;;;;19.45;18.55;;;12.00;80.20;;;;;;4956254;29;20023;-84
2022/02/02 00:05:30;;;;;;;19.67;18.73;;;12.00;80.20;;;;;;4946459;29;20410;-84
2022/02/02 00:13:25;;;;;;;19.20;18.30;;;12.00;80.30;;;;;;4964145;28;20020;-85
2022/02/02 00:16:04;;;;;;;19.58;18.67;;;11.90;80.30;;;;;;4951025;28;20035;-84
2022/02/02 00:21:42;;;;;;;19.52;18.63;;;11.90;80.30;;;;;;4875235;29;20045;-84
2022/02/02 00:24:20;;;;;;;19.38;18.48;;;11.90;80.40;;;;;;4894586;29;20041;-84
2022/02/02 00:26:48;;;;;;;19.65;18.75;;;11.90;80.40;;;;;;4896278;29;20056;-84
2022/02/02 00:29:19;;;;;;;19.83;18.88;;;11.90;80.40;;;;;;4875429;29;20080;-85
2022/02/02 00:31:56;;;;;;;19.40;18.50;;;11.90;80.40;;;;;;4893758;29;20078;-85
2022/02/02 00:34:26;;;;;;;19.10;18.20;;;11.90;80.40;;;;;;4868326;29;20053;-84
2022/02/02 00:36:57;;;;;;;18.85;17.95;;;11.90;80.40;;;;;;4895774;29;20439;-85
2022/02/02 00:39:24;;;;;;;19.63;18.73;;;11.90;80.40;;;;;;4880714;29;20400;-84
2022/02/02 00:41:53;;;;;;;18.60;17.75;;;11.90;80.40;;;;;;4896332;29;20043;-85
2022/02/02 00:44:20;;;;;;;18.83;17.95;;;11.90;80.40;;;;;;4878116;29;20119;-85
2022/02/02 00:46:46;;;;;;;19.08;18.17;;;11.90;80.50;;;;;;4853779;29;20056;-85
2022/02/02 00:49:13;;;;;;;19.30;18.40;;;11.90;80.50;;;;;;4886779;29;20119;-85
2022/02/02 00:54:06;;;;;;;19.20;18.30;;;11.90;80.50;;;;;;4897229;29;20045;-85
2022/02/02 00:56:32;;;;;;;18.30;17.50;;;11.90;80.50;;;;;;4911334;29;20050;-84
2022/02/02 00:58:58;;;;;;;18.80;17.90;;;11.90;80.50;;;;;;4955455;29;20023;-84
2022/02/02 01:01:25;;;;;;;19.30;18.40;;;11.90;80.50;;;;;;4964119;28;20375;-84
2022/02/02 01:03:51;;;;;;;18.95;18.05;;;11.90;80.60;;;;;;4950774;29;20065;-84
2022/02/02 01:06:20;;;;;;;19.17;18.27;;;11.90;80.60;;;;;;4970075;28;20042;-84
2022/02/02 01:19:55;;;;;;;18.92;18.02;;;11.90;80.50;;;;;;4944286;29;20043;-85
2022/02/02 01:27:44;;;;;;;18.77;17.88;;;11.90;80.60;;;;;;4942947;29;20040;-84
2022/02/02 01:27:52;;;;;;;19.48;18.58;;;11.90;80.70;;;;;;4948965;29;20042;-85
2022/02/02 01:30:18;;;;;;;19.13;18.23;;;11.90;80.70;;;;;;4968952;28;20036;-85
2022/02/02 01:32:45;;;;;;;19.42;18.52;;;11.80;80.70;;;;;;4950872;29;20042;-84
2022/02/02 01:35:16;;;;;;;19.25;18.35;;;11.90;80.70;;;;;;4940369;29;20051;-84
2022/02/02 01:37:42;;;;;;;18.13;17.33;;;11.90;80.70;;;;;;4952773;28;20031;-84
2022/02/02 01:40:18;;;;;;;19.02;18.13;;;11.80;80.70;;;;;;4953096;28;20031;-85
2022/02/02 01:42:51;;;;;;;18.17;17.38;;;11.90;80.70;;;;;;4952240;29;20521;-84
2022/02/02 01:45:31;;;;;;;18.83;17.92;;;11.90;80.70;;;;;;4953032;28;20048;-84
2022/02/02 01:50:44;;;;;;;19.00;18.10;;;11.90;80.80;;;;;;4956701;28;20398;-84
2022/02/02 01:53:23;;;;;;;19.35;18.45;;;11.90;80.90;;;;;;4967553;28;20046;-84
2022/02/02 01:55:50;;;;;;;18.77;17.88;;;11.90;80.90;;;;;;4944226;29;20059;-84
2022/02/02 02:01:06;;;;;;;19.10;18.20;;;11.80;80.90;;;;;;4905292;29;20036;-84
2022/02/02 02:03:33;;;;;;;18.50;17.67;;;11.80;80.90;;;;;;4883561;29;20044;-85
2022/02/02 02:05:59;;;;;;;18.70;17.80;;;11.80;80.90;;;;;;4890440;29;20057;-84
2022/02/02 02:08:26;;;;;;;18.38;17.58;;;11.80;81.00;;;;;;4899647;29;20044;-84
2022/02/02 02:10:52;;;;;;;19.25;18.35;;;11.80;81.00;;;;;;4898956;29;20041;-85
2022/02/02 02:16:03;;;;;;;18.70;17.80;;;11.80;81.00;;;;;;4899676;29;20035;-84
2022/02/02 02:18:29;;;;;;;18.55;17.65;;;11.80;81.00;;;;;;4898138;29;20040;-84
2022/02/02 02:20:56;;;;;;;19.15;18.25;;;11.80;81.00;;;;;;4895381;29;20035;-84
2022/02/02 02:23:22;;;;;;;19.15;18.25;;;11.80;81.00;;;;;;4884071;29;20044;-85
2022/02/02 02:25:49;;;;;;;19.00;18.10;;;11.80;81.00;;;;;;4899363;29;20049;-84
2022/02/02 02:30:55;;;;;;;18.15;17.35;;;11.80;81.00;;;;;;4878162;29;20403;-84
2022/02/02 02:33:49;;;;;;;18.55;17.65;;;11.80;81.10;;;;;;4884568;29;20048;-83
2022/02/02 02:58:23;;;;;;;17.92;17.13;;;11.70;81.10;;;;;;4944854;29;20501;-84
2022/02/02 03:01:11;;;;;;;18.77;17.87;;;11.70;81.10;;;;;;4948087;28;20405;-85
2022/02/02 03:31:52;;;;;;;18.60;17.70;;;11.60;81.20;;;;;;4891593;29;20055;-85
2022/02/02 03:51:26;;;;;;;18.58;17.73;;;11.60;81.40;;;;;;4916715;29;20051;-84
2022/02/02 04:10:29;;;;;;;19.20;18.30;;;11.50;81.50;;;;;;4867646;29;20042;-85
2022/02/02 04:13:11;;;;;;;19.17;18.27;;;11.50;81.40;;;;;;4864774;29;20041;-84
2022/02/02 04:37:24;;;;;;;19.40;18.50;;;11.50;81.40;;;;;;4862865;29;20062;-84
2022/02/02 04:56:31;;;;;;;18.95;18.05;;;11.50;81.30;;;;;;4959765;28;20034;-90
2022/02/02 04:59:24;;;;;;;19.80;18.20;;;11.50;81.20;;;;;;4951110;29;20047;-92
2022/02/02 05:05:08;;;;;;;18.50;17.60;;;11.50;81.30;;;;;;4951193;28;20811;-92
2022/02/02 05:07:38;;;;;;;18.77;17.88;;;11.50;81.30;;;;;;4949302;29;20047;-92
2022/02/02 05:52:55;;;;;;;18.90;18.00;;;11.40;81.50;;;;;;4880563;29;20053;-88
2022/02/02 05:55:21;;;;;;;19.13;18.23;;;11.40;81.30;;;;;;4890595;29;20037;-87
2022/02/02 05:57:47;;;;;;;18.95;18.05;;;11.50;81.30;;;;;;4885784;29;20548;-88
2022/02/02 06:00:14;;;;;;;18.15;17.35;;;11.50;81.30;;;;;;4907307;29;20051;-88
2022/02/02 06:02:42;;;;;;;19.13;18.23;;;11.50;81.30;;;;;;4879741;29;20428;-88
2022/02/02 06:05:09;;;;;;;17.77;16.88;;;11.50;81.30;;;;;;4902398;29;20517;-88
2022/02/02 06:07:41;;;;;;;18.35;17.55;;;11.40;81.20;;;;;;4962963;28;20046;-88
2022/02/02 06:10:09;;;;;;;18.33;17.42;;;11.50;81.30;;;;;;4950916;29;20042;-88
2022/02/02 06:12:35;;;;;;;18.77;17.88;;;11.50;81.30;;;;;;4951760;29;20050;-88
2022/02/02 06:15:08;;;;;;;19.13;18.23;;;11.40;81.20;;;;;;4941896;28;20039;-89
2022/02/02 06:17:36;;;;;;;19.50;18.60;;;11.40;81.20;;;;;;4963890;28;20047;-88
2022/02/02 06:20:03;;;;;;;18.85;17.95;;;11.40;81.20;;;;;;4948213;29;20055;-89
2022/02/02 06:22:31;;;;;;;18.65;17.80;;;11.40;81.20;;;;;;4950942;28;20505;-88
2022/02/02 06:25:03;;;;;;;19.08;18.17;;;11.40;82.00;;;;;;4949847;29;20043;-88
2022/02/02 06:27:29;;;;;;;19.05;18.15;;;11.40;81.30;;;;;;4950622;28;20043;-88
2022/02/02 06:30:00;;;;;;;19.25;18.35;;;11.40;81.30;;;;;;4936141;29;20031;-87
2022/02/02 06:32:28;;;;;;;19.08;18.17;;;11.40;81.20;;;;;;4971461;28;20038;-87
2022/02/02 06:34:58;;;;;;;18.92;18.02;;;11.40;81.20;;;;;;4947513;28;20039;-87
2022/02/02 06:37:24;;;;;;;19.38;18.48;;;11.40;81.20;;;;;;4961190;28;20041;-87
2022/02/02 06:39:52;;;;;;;18.95;18.05;;;11.50;81.30;;;;;;4940630;29;20474;-87
2022/02/02 06:42:18;;;;;;;19.33;18.42;;;11.50;81.20;;;;;;4949522;28;20039;-87
2022/02/02 06:44:45;;;;;;;18.70;17.80;;;11.50;81.30;;;;;;4950065;29;20505;-87
2022/02/02 06:47:11;;;;;;;18.73;17.83;;;11.50;81.10;;;;;;4930040;29;20048;-86
2022/02/02 06:49:39;;;;;;;18.30;17.50;;;11.40;81.10;;;;;;4951415;29;20038;-88
2022/02/02 06:52:13;;;;;;;19.08;18.15;;;11.40;81.10;;;;;;4950975;29;20039;-87
2022/02/02 06:55:00;;;;;;;19.27;18.38;;;11.40;81.10;;;;;;4949029;29;20482;-87
2022/02/02 06:57:42;;;;;;;18.75;17.85;;;11.40;81.20;;;;;;4950457;29;20422;-88
2022/02/02 07:05:25;;;;;;;19.52;18.63;;;11.40;81.20;;;;;;4966658;28;20039;-88
2022/02/02 07:29:21;;;;;;;18.95;18.05;;;11.30;81.10;;;;;;4914885;29;20049;-89
2022/02/02 07:37:30;;;;;;;;;;;11.20;81.10;;;;;;4914662;29;20044;-88
2022/02/02 07:40:01;;;;;;;19.02;18.13;;;11.20;81.00;;;;;;4893982;29;19912;-86
2022/02/02 07:42:27;;;;;;;19.10;18.20;;;11.30;81.10;;;;;;4889544;29;20039;-87
2022/02/02 07:45:13;;;;;;;19.23;18.33;;;11.30;81.00;;;;;;4884356;29;20043;-87
2022/02/02 07:47:41;;;;;;;20.00;19.10;;;11.20;80.90;;;;;;4931967;29;20050;-87
2022/02/02 07:50:09;;;;;;;19.35;18.45;;;11.20;80.90;;;;;;4953454;29;20051;-87
2022/02/02 07:52:36;;;;;;;19.90;19.00;;;11.20;80.90;;;;;;4954875;29;20043;-87
2022/02/02 07:55:04;;;;;;;19.60;18.70;;;11.20;80.90;;;;;;4950910;29;20491;-87
2022/02/02 07:57:30;;;;;;;19.88;18.98;;;11.20;80.90;;;;;;4940036;29;20043;-87
2022/02/02 08:00:04;;;;;;;19.98;19.08;;;11.20;80.90;;;;;;4954851;29;20386;-87
2022/02/02 08:05:14;;;;;;;20.27;19.38;;;11.20;80.80;;;;;;4955755;29;20394;-88
2022/02/02 08:07:45;;;;;;;20.20;19.30;;;11.20;80.90;;;;;;4956212;28;20078;-84
2022/02/02 08:15:33;;;;;;;19.70;18.80;;;11.30;80.90;;;;;;4875411;29;20041;-86
2022/02/02 08:17:59;;;;;;;20.52;19.63;;;11.30;80.80;;;;;;4876390;29;20059;-85
2022/02/02 08:20:25;;;;;;;20.77;19.77;;;11.30;80.90;;;;;;4878565;29;20145;-84
2022/02/02 08:22:52;;;;;;;19.58;18.67;;;11.20;80.80;;;;;;4852565;29;20037;-84
2022/02/02 08:25:29;;;;;;;21.25;20.10;;;11.30;80.80;;;;;;4871159;29;20037;-85
2022/02/02 08:27:58;;;;;;;20.67;19.67;;;11.20;80.70;;;;;;4876694;29;20048;-84
2022/02/02 08:30:27;;;;;;;21.00;20.00;;;11.30;80.70;;;;;;4885769;29;20044;-84
2022/02/02 08:33:02;;;;;;;21.10;20.10;;;11.20;80.70;;;;;;4876813;29;20045;-85
2022/02/02 08:35:30;;;;;;;19.75;18.85;;;11.30;80.80;;;;;;4877984;29;20049;-84
2022/02/02 08:40:45;;;;;;;20.80;19.80;;;11.30;81.40;;;;;;4882631;29;20040;-84
2022/02/02 08:43:20;;;;;;;20.35;19.45;;;11.30;80.50;;;;;;4874839;29;20097;-85
2022/02/02 08:45:48;;;;;;;20.88;19.88;;;11.40;80.60;;;;;;4875962;29;20049;-83
2022/02/02 08:48:20;;;;;;;20.88;19.88;;;11.40;80.50;;;;;;4875284;29;20052;-85
2022/02/02 08:50:52;;;;;;;20.27;19.38;;;11.40;80.50;;;;;;4875298;29;20052;-88
2022/02/02 08:58:38;;;;;;;20.92;19.92;;;11.50;80.40;;;;;;4957065;28;20100;-83
2022/02/02 09:01:09;;;;;;;21.15;20.08;;;11.50;80.30;;;;;;4956145;28;20036;-84
2022/02/02 09:06:21;;;;;;;20.27;19.38;;;11.60;80.20;;;;;;4939943;29;20406;-83
2022/02/02 09:08:50;;;;;;;20.48;19.58;;;11.60;80.20;;;;;;4965397;28;20043;-83
2022/02/02 09:25:27;;;;;;;20.40;19.50;;;11.60;80.10;;;;;;4955392;28;20054;-84
2022/02/02 09:36:08;;;;;;;20.83;19.83;;;11.60;80.00;;;;;;4910899;29;20480;-85
2022/02/02 09:38:34;;;;;;;20.48;19.55;;;11.60;79.90;;;;;;4916053;29;20170;-84
2022/02/02 09:41:23;;;;;;;20.35;19.45;;;11.60;80.00;;;;;;4907251;29;20051;-84
2022/02/02 09:43:49;;;;;;;20.92;19.92;;;11.60;79.80;;;;;;4923320;29;20499;-84
2022/02/02 09:46:19;;;;;;;20.48;19.52;;;11.70;79.70;;;;;;4902547;29;20175;-86
2022/02/02 09:48:56;;;;;;;20.85;19.85;;;11.70;80.50;;;;;;4898864;29;20078;-91
2022/02/02 09:51:31;;;;;;;20.10;19.20;;;11.70;79.70;;;;;;4909395;29;20056;-91
2022/02/02 09:54:07;;;;;;;19.90;18.98;;;11.60;79.70;;;;;;4926999;29;20036;-88
2022/02/02 09:56:58;;;;;;;20.63;19.70;;;11.60;79.70;;;;;;4908038;29;20040;-88
2022/02/02 10:15:21;;;;;;;20.77;19.83;;;11.80;80.00;;;;;;4951262;28;20035;-88
2022/02/02 10:17:54;;;;;;;1999.90;999.90;;;11.90;79.30;;;;;;4951008;29;20035;-84
2022/02/02 10:20:22;;;;;;;1999.90;999.90;;;11.80;79.20;;;;;;4953051;28;20482;-84
2022/02/02 10:22:50;;;;;;;515.90;265.15;;;11.80;79.30;;;;;;4951574;29;20043;-84
2022/02/02 10:25:28;;;;;;;1999.90;999.90;;;11.90;79.20;;;;;;4948601;29;20509;-85
2022/02/02 10:28:10;;;;;;;516.90;266.15;;;11.90;79.10;;;;;;4951057;29;20495;-85
2022/02/02 10:30:36;;;;;;;1999.90;999.90;;;11.90;79.00;;;;;;4945746;28;20030;-84
2022/02/02 10:33:05;;;;;;;1999.90;999.90;;;11.90;79.00;;;;;;4947919;29;20031;-84
2022/02/02 10:35:42;;;;;;;1999.90;999.90;;;11.90;79.10;;;;;;4947331;29;20042;-86
2022/02/02 10:38:30;;;;;;;1999.90;999.90;;;11.90;79.00;;;;;;4951466;28;20042;-85
2022/02/02 10:43:47;;;;;;;517.15;266.33;;;11.90;79.00;;;;;;4949482;28;20035;-89
2022/02/02 10:46:19;;;;;;;1999.90;999.90;;;11.90;79.00;;;;;;4949102;28;20047;-90
2022/02/02 10:49:01;;;;;;;1999.90;999.90;;;11.80;78.90;;;;;;4966970;28;20050;-89
2022/02/02 10:54:13;;;;;;;1999.90;999.90;;;11.90;78.80;;;;;;4955145;28;20035;-91
2022/02/02 10:56:54;;;;;;;1999.90;999.90;;;11.90;78.70;;;;;;4964313;28;20035;-90
2022/02/02 10:59:29;;;;;;;1999.90;999.90;;;12.00;78.60;;;;;;4966400;28;20027;-90
2022/02/02 11:07:25;;;;;;;1999.90;999.90;;;12.00;78.40;;;;;;4964643;28;20056;-89
2022/02/02 11:09:54;;;;;;;1999.90;999.90;;;12.10;78.40;;;;;;4952087;29;20057;-90
2022/02/02 11:12:27;;;;;;;1999.90;999.90;;;12.10;78.30;;;;;;4952726;29;20031;-90
2022/02/02 11:14:59;;;;;;;1999.90;999.90;;;12.10;78.30;;;;;;4940087;29;20035;-88
2022/02/02 11:18:02;;;;;;;1999.90;999.90;;;12.10;79.00;;;;;;4956542;28;20027;-90
2022/02/02 11:20:28;;;;;;;1999.90;999.90;;;12.20;78.30;;;;;;4956921;29;20379;-89
2022/02/02 11:22:55;;;;;;;1999.90;999.90;;;12.20;78.20;;;;;;4954325;29;20120;-90
2022/02/02 11:25:21;;;;;;;1999.90;999.90;;;12.10;78.20;;;;;;4956825;29;20066;-90
2022/02/02 11:27:52;;;;;;;1999.90;999.90;;;12.20;78.30;;;;;;4956481;29;20050;-89
2022/02/02 11:30:24;;;;;;;1999.90;999.90;;;12.10;78.20;;;;;;4956156;28;20037;-90
2022/02/02 11:32:58;;;;;;;1999.90;999.90;;;12.10;78.20;;;;;;4957522;29;20039;-89
2022/02/02 11:35:38;;;;;;;1999.90;999.90;;;12.10;78.20;;;;;;4955565;29;20043;-90
2022/02/02 11:38:07;;;;;;;1999.90;999.90;;;12.10;78.20;;;;;;4957905;28;20031;-91
2022/02/02 11:40:41;;;;;;;1999.90;999.90;;;12.10;78.30;;;;;;4953558;29;20039;-90
2022/02/02 11:43:16;;;;;;;1999.90;999.90;;;12.10;78.10;;;;;;4954838;29;20046;-90
2022/02/02 11:45:47;;;;;;;1999.90;999.90;;;12.10;78.50;;;;;;4970383;28;20031;-89
2022/02/02 11:48:54;;;;;;;1999.90;999.90;;;12.10;77.90;;;;;;4956436;29;20039;-91
2022/02/02 11:51:44;;;;;;;1999.90;999.90;;;12.10;77.90;;;;;;4943046;29;20054;-91
2022/02/02 11:54:11;;;;;;;1999.90;999.90;;;12.20;78.00;;;;;;4947613;28;20128;-91
2022/02/02 11:57:42;;;;;;;1999.90;999.90;;;12.10;77.80;;;;;;4939304;29;20043;-90
2022/02/02 12:18:55;;;;;;;1999.90;999.90;;;12.40;77.40;;;;;;4946326;28;20042;-91
2022/02/02 12:55:47;;;;;;;1999.90;999.90;;;12.70;76.60;;;;;;4954686;28;20027;-89
2022/02/02 13:00:51;;;;;;;1999.90;999.90;;;12.70;76.50;;;;;;4932315;28;20035;-88
2022/02/02 13:03:17;;;;;;;1999.90;999.90;;;12.70;76.50;;;;;;4954076;29;20035;-90
2022/02/02 13:05:45;;;;;;;1999.90;999.90;;;12.70;76.40;;;;;;4968387;28;20043;-90
2022/02/02 13:08:11;;;;;;;1999.90;999.90;;;12.80;76.40;;;;;;4955313;29;20039;-89
2022/02/02 13:10:38;;;;;;;1999.90;999.90;;;12.80;76.30;;;;;;4938421;29;20035;-91
2022/02/02 13:13:09;;;;;;;1999.90;999.90;;;12.90;76.30;;;;;;4954440;29;20031;-89
2022/02/02 13:15:40;;;;;;;;;;;13.00;76.20;;;;;;4954784;28;20042;-89
2022/02/02 13:20:47;;;;;;;1999.90;999.90;;;13.00;75.80;;;;;;4954758;28;20404;-89
2022/02/02 13:23:51;;;;;;;1999.90;999.90;;;13.10;75.90;;;;;;4954044;29;20035;-89
2022/02/02 13:26:50;;;;;;;1999.90;999.90;;;13.10;76.00;;;;;;4952444;29;20089;-90
2022/02/02 13:29:25;;;;;;;1999.90;999.90;;;13.10;75.90;;;;;;4933922;29;20055;-89
2022/02/02 13:35:02;;;;;;;1999.90;999.90;;;13.10;75.80;;;;;;4938599;29;20047;-89
2022/02/02 13:43:06;;;;;;;1999.90;999.90;;;13.20;75.70;;;;;;4957567;28;20540;-90
2022/02/02 14:09:29;;;;;;;1999.90;999.90;;;13.30;75.20;;;;;;4940451;29;20397;-90
2022/02/02 14:33:28;;;;;;;1999.90;999.90;;;13.50;75.00;;;;;;4954126;28;20035;-84
2022/02/02 14:35:58;;;;;;;1999.90;999.90;;;13.50;74.80;;;;;;4946957;28;20040;-84
2022/02/02 14:38:24;;;;;;;1999.90;999.90;;;13.50;74.80;;;;;;4951938;28;20055;-84
2022/02/02 14:43:31;;;;;;;1999.90;999.90;;;13.50;74.80;;;;;;4953563;28;20050;-84
2022/02/02 14:46:00;;;;;;;1999.90;999.90;;;13.50;74.80;;;;;;4948987;28;20054;-84
2022/02/02 14:48:37;;;;;;;1999.90;999.90;;;13.50;74.80;;;;;;4947980;28;20040;-84
2022/02/02 14:51:13;;;;;;;1999.90;999.90;;;13.40;74.80;;;;;;4945396;29;20051;-84
2022/02/02 14:56:47;;;;;;;1999.90;999.90;;;13.40;74.80;;;;;;4958101;28;20035;-84
2022/02/02 15:08:37;;;;;;;1999.90;999.90;;;13.30;74.90;;;;;;4939543;29;20039;-85
2022/02/02 15:31:54;;;;;;;1999.90;999.90;;;13.20;74.70;;;;;;4894964;29;20039;-84
2022/02/02 15:34:30;;;;;;;1999.90;999.90;;;13.20;74.70;;;;;;4891814;29;20049;-84
2022/02/02 15:39:37;;;;;;;1999.90;999.90;;;13.20;74.60;;;;;;4896882;29;20281;-86
2022/02/02 16:05:40;;;;;;;1999.90;999.90;;;12.90;74.80;;;;;;4900241;29;20036;-87
2022/02/02 16:08:09;;;;;;;1999.90;999.90;;;12.90;74.90;;;;;;4913326;29;20043;-89
2022/02/02 16:13:40;;;;;;;1999.90;999.90;;;12.80;74.80;;;;;;4949229;29;20043;-88
2022/02/02 16:16:26;;;;;;;1999.90;999.90;;;12.80;74.90;;;;;;4943921;28;20032;-89
2022/02/02 16:19:00;;;;;;;1999.90;999.90;;;12.80;74.80;;;;;;4952378;29;20038;-85
2022/02/02 16:35:42;;;;;;;1999.90;999.90;;;12.70;74.80;;;;;;4881839;29;20052;-89
2022/02/02 16:38:10;;;;;;;1999.90;999.90;;;12.70;74.80;;;;;;4901353;29;20047;-87
2022/02/02 16:40:37;;;;;;;1999.90;999.90;;;12.60;74.90;;;;;;4912509;29;20047;-86
2022/02/02 16:45:33;;;;;;;1999.90;999.90;;;12.60;74.90;;;;;;4898807;29;20040;-86
2022/02/02 16:48:00;;;;;;;1999.90;999.90;;;12.50;74.90;;;;;;4898444;29;20531;-89
2022/02/02 16:50:31;;;;;;;1999.90;999.90;;;12.50;74.80;;;;;;4913429;29;20047;-88
2022/02/02 16:53:02;;;;;;;1999.90;999.90;;;12.50;74.80;;;;;;4911963;29;20032;-87
2022/02/02 16:55:46;;;;;;;1999.90;999.90;;;12.50;74.80;;;;;;4912272;29;20539;-86
2022/02/02 17:30:57;;;;;;;1999.90;999.90;;;12.20;74.90;;;;;;4948161;28;20039;-87
2022/02/02 17:33:31;;;;;;;;;;;12.20;74.80;;;;;;4942279;28;20032;-86
2022/02/02 17:39:03;;;;;;;1999.90;999.90;;;12.10;74.80;;;;;;4952514;28;20043;-90
2022/02/02 18:19:43;;;;;;;1999.90;999.90;;;11.90;74.70;;;;;;4961289;28;20530;-90
2022/02/02 18:22:10;;;;;;;1999.90;999.90;;;11.90;74.70;;;;;;4941742;29;20040;-89
2022/02/02 18:24:50;;;;;;;1999.90;999.90;;;11.90;74.70;;;;;;4955763;28;20031;-86
2022/02/02 18:27:22;;;;;;;1999.90;999.90;;;11.90;74.70;;;;;;4950466;28;20032;-92
2022/02/02 18:30:11;;;;;;;1999.90;999.90;;;11.90;74.70;;;;;;4951507;28;20401;-87
2022/02/02 18:32:59;;;;;;;1999.90;999.90;;;11.80;74.70;;;;;;4951970;28;20116;-89
2022/02/02 18:35:31;;;;;;;1999.90;999.90;;;11.80;74.70;;;;;;4954315;29;20047;-88
2022/02/02 18:42:49;;;;;;;1999.90;999.90;;;11.80;74.70;;;;;;4963545;28;20474;-88
2022/02/02 19:01:42;;;;;;;1999.90;999.90;;;11.70;74.70;;;;;;4950639;28;20044;-88
2022/02/02 19:31:26;;;;;;;1999.90;999.90;;;11.60;74.60;;;;;;4946962;28;20036;-86
2022/02/02 19:55:49;;;;;;;1999.90;999.90;;;11.40;74.70;;;;;;4828639;29;20051;-84
2022/02/02 20:11:43;;;;;;;1999.90;999.90;;;11.30;74.80;;;;;;4827346;29;20034;-84
2022/02/02 20:14:12;;;;;;;1999.90;999.90;;;11.30;74.70;;;;;;4841112;29;20041;-84
2022/02/02 20:16:39;;;;;;;1999.90;999.90;;;11.20;74.70;;;;;;4831455;29;20420;-84
2022/02/02 20:19:07;;;;;;;1999.90;999.90;;;11.20;74.70;;;;;;4820907;29;20046;-84
2022/02/02 20:21:38;;;;;;;1999.90;999.90;;;11.20;74.70;;;;;;4859068;29;20040;-83
2022/02/02 20:24:07;;;;;;;1999.90;999.90;;;11.20;74.70;;;;;;4897538;29;20032;-85
2022/02/02 20:26:35;;;;;;;1999.90;999.90;;;11.20;74.70;;;;;;4924365;29;20282;-84
2022/02/02 20:29:02;;;;;;;1999.90;999.90;;;11.20;74.70;;;;;;4955615;29;20051;-83
2022/02/02 20:31:32;;;;;;;1999.90;999.90;;;11.30;74.70;;;;;;4952496;28;20038;-87
2022/02/02 20:33:59;;;;;;;1999.90;999.90;;;11.30;74.70;;;;;;4936039;29;20043;-87
2022/02/02 20:36:25;;;;;;;1999.90;999.90;;;11.20;74.60;;;;;;4948634;28;20034;-87
2022/02/02 20:38:52;;;;;;;1999.90;999.90;;;11.20;74.60;;;;;;4951164;29;20035;-87
2022/02/02 20:41:18;;;;;;;1999.90;999.90;;;11.20;74.60;;;;;;4954525;29;20035;-91
2022/02/02 20:44:00;;;;;;;1999.90;999.90;;;11.20;74.60;;;;;;4960429;28;20470;-90
2022/02/02 21:10:29;;;;;;;1999.90;999.90;;;11.10;74.50;;;;;;4956216;28;20047;-88
2022/02/02 21:15:41;;;;;;;1999.90;999.90;;;11.10;74.60;;;;;;4957045;28;20035;-86
2022/02/02 21:18:11;;;;;;;1999.90;999.90;;;11.10;74.60;;;;;;4969203;28;20027;-90
2022/02/02 21:23:26;;;;;;;1999.90;999.90;;;11.10;74.60;;;;;;4945777;29;20394;-85
2022/02/02 21:28:38;;;;;;;1999.90;999.90;;;11.00;74.50;;;;;;4955261;28;20035;-87
2022/02/02 21:31:07;;;;;;;1999.90;999.90;;;11.10;74.60;;;;;;4948806;28;20056;-86
2022/02/02 21:33:36;;;;;;;1999.90;999.90;;;11.00;74.50;;;;;;4959662;28;20426;-87
2022/02/02 21:36:02;;;;;;;1999.90;999.90;;;11.00;74.50;;;;;;4938798;28;20042;-86
2022/02/02 21:38:40;;;;;;;1999.90;999.90;;;11.00;74.50;;;;;;4939200;29;20395;-87
2022/02/02 21:41:07;;;;;;;1999.90;999.90;;;11.00;74.60;;;;;;4946888;29;20051;-86
2022/02/02 21:43:34;;;;;;;1999.90;999.90;;;11.00;74.60;;;;;;4950776;29;20038;-86
2022/02/02 21:46:00;;;;;;;1999.90;999.90;;;11.00;74.60;;;;;;4952945;28;20046;-85
2022/02/02 21:48:31;;;;;;;1999.90;999.90;;;11.00;74.60;;;;;;4953325;29;20046;-86
2022/02/02 21:51:06;;;;;;;1999.90;999.90;;;10.90;74.50;;;;;;4952932;29;20058;-86
2022/02/02 21:53:32;;;;;;;1999.90;999.90;;;10.90;74.50;;;;;;4938225;29;20387;-86
2022/02/02 21:55:58;;;;;;;1999.90;999.90;;;10.90;74.50;;;;;;4954116;29;20039;-87
2022/02/02 21:58:24;;;;;;;1999.90;999.90;;;10.90;74.60;;;;;;4946531;28;20509;-87
2022/02/02 22:00:51;;;;;;;1999.90;999.90;;;10.90;74.60;;;;;;4944053;28;20035;-86
2022/02/02 22:03:17;;;;;;;1999.90;999.90;;;10.90;74.60;;;;;;4963986;28;20023;-85
2022/02/02 22:05:43;;;;;;;1999.90;999.90;;;10.90;74.50;;;;;;4952581;29;20039;-87
2022/02/02 22:08:10;;;;;;;1999.90;999.90;;;10.90;74.50;;;;;;4940630;29;20406;-85
2022/02/02 22:10:37;;;;;;;1999.90;999.90;;;10.90;74.60;;;;;;4951135;29;20393;-86
2022/02/02 22:13:03;;;;;;;1999.90;999.90;;;10.90;74.60;;;;;;4953912;28;20047;-87
2022/02/02 22:15:39;;;;;;;1999.90;999.90;;;10.90;74.50;;;;;;4953170;28;20038;-87
2022/02/02 22:18:05;;;;;;;1999.90;999.90;;;10.90;74.50;;;;;;4940541;29;20031;-87
2022/02/02 22:20:32;;;;;;;1999.90;999.90;;;10.90;74.50;;;;;;4938306;29;20051;-88
2022/02/02 22:22:58;;;;;;;1999.90;999.90;;;10.90;74.50;;;;;;4952441;29;20042;-86
2022/02/02 22:25:24;;;;;;;1999.90;999.90;;;10.80;74.50;;;;;;4947903;29;20038;-86
2022/02/02 22:27:50;;;;;;;1999.90;999.90;;;10.80;74.50;;;;;;4953202;29;20050;-86
2022/02/02 22:30:16;;;;;;;1999.90;999.90;;;10.80;74.60;;;;;;4952547;28;20051;-88
2022/02/02 22:32:43;;;;;;;1999.90;999.90;;;10.80;74.50;;;;;;4952711;29;20035;-87
2022/02/02 22:35:09;;;;;;;1999.90;999.90;;;10.80;74.50;;;;;;4952855;29;20047;-87
2022/02/02 22:37:35;;;;;;;1999.90;999.90;;;10.80;74.50;;;;;;4967259;28;20038;-86
2022/02/02 22:40:03;;;;;;;1999.90;999.90;;;10.80;74.50;;;;;;4952746;28;20050;-87
2022/02/02 22:42:30;;;;;;;1999.90;999.90;;;10.80;74.50;;;;;;4953178;29;20031;-87
2022/02/02 22:45:00;;;;;;;1999.90;999.90;;;10.70;74.50;;;;;;4951900;29;22150;-87
2022/02/02 22:47:29;;;;;;;1999.90;999.90;;;10.70;74.60;;;;;;4923699;28;20032;-87
2022/02/02 22:49:55;;;;;;;1999.90;999.90;;;10.70;74.60;;;;;;4939765;29;20035;-87
2022/02/02 22:52:22;;;;;;;1999.90;999.90;;;10.70;74.60;;;;;;4947746;29;20051;-87
2022/02/02 22:54:50;;;;;;;1999.90;999.90;;;10.70;74.60;;;;;;4965988;28;20094;-87
2022/02/02 22:57:16;;;;;;;1999.90;999.90;;;10.70;74.60;;;;;;4944258;29;20054;-87
2022/02/02 22:59:45;;;;;;;1999.90;999.90;;;10.70;74.60;;;;;;4952141;29;20041;-87
2022/02/02 23:04:56;;;;;;;1999.90;999.90;;;10.70;74.60;;;;;;4940279;28;20428;-86
2022/02/02 23:07:22;;;;;;;1999.90;999.90;;;10.60;74.60;;;;;;4948157;29;20506;-87
2022/02/02 23:09:50;;;;;;;1999.90;999.90;;;10.60;74.60;;;;;;4965855;28;20059;-87
2022/02/02 23:12:18;;;;;;;1999.90;999.90;;;10.60;74.50;;;;;;4937727;29;20047;-80
2022/02/02 23:14:45;;;;;;;1999.90;999.90;;;10.60;74.60;;;;;;4965476;28;20027;-86
2022/02/02 23:17:12;;;;;;;1999.90;999.90;;;10.60;74.60;;;;;;4949952;28;20417;-87
2022/02/02 23:19:42;;;;;;;1999.90;999.90;;;10.60;74.60;;;;;;4959252;28;20032;-86
2022/02/02 23:22:09;;;;;;;1999.90;999.90;;;10.60;74.60;;;;;;4945910;29;20027;-86
2022/02/02 23:24:39;;;;;;;1999.90;999.90;;;10.60;74.60;;;;;;4951590;29;20337;-87
2022/02/02 23:27:07;;;;;;;1999.90;999.90;;;10.60;74.60;;;;;;4951134;28;20035;-87
2022/02/02 23:29:36;;;;;;;1999.90;999.90;;;10.50;74.60;;;;;;4936229;29;20038;-87
2022/02/02 23:32:03;;;;;;;1999.90;999.90;;;10.50;74.60;;;;;;4964146;28;20040;-87
2022/02/02 23:34:29;;;;;;;1999.90;999.90;;;10.50;74.60;;;;;;4940114;28;20368;-86
2022/02/02 23:36:55;;;;;;;1999.90;999.90;;;10.50;74.60;;;;;;4944432;28;20031;-86
2022/02/02 23:39:22;;;;;;;1999.90;999.90;;;10.50;74.60;;;;;;4957478;28;20042;-87
2022/02/02 23:44:33;;;;;;;1999.90;999.90;;;10.50;74.60;;;;;;4935274;29;20495;-86
2022/02/02 23:46:59;;;;;;;1999.90;999.90;;;10.50;74.60;;;;;;4947703;28;20048;-86
2022/02/02 23:49:34;;;;;;;1999.90;999.90;;;10.50;74.60;;;;;;4944170;29;20499;-86
2022/02/02 23:52:00;;;;;;;1999.90;999.90;;;10.50;74.60;;;;;;4940648;29;20039;-86
2022/02/02 23:54:27;;;;;;;1999.90;999.90;;;10.50;74.60;;;;;;4965633;28;20374;-86
2022/02/02 23:56:59;;;;;;;1999.90;999.90;;;10.50;74.60;;;;;;4950353;29;20039;-86
2022/02/02 23:59:34;;;;;;;1999.90;999.90;;;10.50;74.70;;;;;;4948524;29;20049;-87
